sensor_id;sensor_type;location;lat;lon;timestamp;pressure;altitude;pressure_sealevel;temperature;humidity
10978;BME280;5542;48.272;10.794;2022-09-09T00:02:18;95523.53;;;15.01;71.55
10978;BME280;5542;48.272;10.794;2022-09-09T00:04:54;95528.28;;;14.94;71.62
10978;BME280;5542;48.272;10.794;2022-09-09T00:07:36;95534.38;;;14.95;71.84
10978;BME280;5542;48.272;10.794;2022-09-09T00:10:15;95525.59;;;14.89;71.79
10978;BME280;5542;48.272;10.794;2022-09-09T00:12:50;95528.53;;;14.88;71.91
10978;BME280;5542;48.272;10.794;2022-09-09T00:15:22;95525.31;;;14.85;71.94
10978;BME280;5542;48.272;10.794;2022-09-09T00:17:53;95518.72;;;14.83;72.35
10978;BME280;5542;48.272;10.794;2022-09-09T00:20:29;95518.44;;;14.79;72.52
10978;BME280;5542;48.272;10.794;2022-09-09T00:23:00;95512.34;;;14.79;72.46
10978;BME280;5542;48.272;10.794;2022-09-09T00:25:35;95507.84;;;14.79;72.07
10978;BME280;5542;48.272;10.794;2022-09-09T00:28:10;95512.34;;;14.79;72.18
10978;BME280;5542;48.272;10.794;2022-09-09T00:30:40;95515.00;;;14.79;72.08
10978;BME280;5542;48.272;10.794;2022-09-09T00:33:11;95520.56;;;14.77;71.85
10978;BME280;5542;48.272;10.794;2022-09-09T00:35:44;95517.59;;;14.69;72.02
10978;BME280;5542;48.272;10.794;2022-09-09T00:38:15;95516.25;;;14.66;71.96
10978;BME280;5542;48.272;10.794;2022-09-09T00:40:49;95517.03;;;14.62;72.15
10978;BME280;5542;48.272;10.794;2022-09-09T00:43:28;95512.50;;;14.57;72.36
10978;BME280;5542;48.272;10.794;2022-09-09T00:46:09;95512.78;;;14.55;72.58
10978;BME280;5542;48.272;10.794;2022-09-09T00:48:48;95515.41;;;14.55;72.55
10978;BME280;5542;48.272;10.794;2022-09-09T00:51:28;95514.63;;;14.55;72.61
10978;BME280;5542;48.272;10.794;2022-09-09T00:54:20;95509.84;;;14.52;72.58
10978;BME280;5542;48.272;10.794;2022-09-09T00:57:00;95513.03;;;14.49;72.67
10978;BME280;5542;48.272;10.794;2022-09-09T00:59:37;95509.25;;;14.45;73.02
10978;BME280;5542;48.272;10.794;2022-09-09T01:02:13;95511.63;;;14.41;73.49
10978;BME280;5542;48.272;10.794;2022-09-09T01:04:42;95502.88;;;14.41;73.90
10978;BME280;5542;48.272;10.794;2022-09-09T01:07:16;95503.16;;;14.39;74.22
10978;BME280;5542;48.272;10.794;2022-09-09T01:09:52;95512.19;;;14.43;74.67
10978;BME280;5542;48.272;10.794;2022-09-09T01:12:26;95509.25;;;14.45;74.91
10978;BME280;5542;48.272;10.794;2022-09-09T01:15:02;95503.19;;;14.44;74.90
10978;BME280;5542;48.272;10.794;2022-09-09T01:17:32;95497.88;;;14.44;74.54
10978;BME280;5542;48.272;10.794;2022-09-09T01:20:07;95489.41;;;14.42;74.69
10978;BME280;5542;48.272;10.794;2022-09-09T01:22:44;95494.16;;;14.40;74.84
10978;BME280;5542;48.272;10.794;2022-09-09T01:25:24;95492.56;;;14.39;74.73
10978;BME280;5542;48.272;10.794;2022-09-09T01:27:56;95495.47;;;14.38;74.73
10978;BME280;5542;48.272;10.794;2022-09-09T01:30:26;95489.13;;;14.39;74.69
10978;BME280;5542;48.272;10.794;2022-09-09T01:32:56;95496.50;;;14.37;74.75
10978;BME280;5542;48.272;10.794;2022-09-09T01:35:45;95496.25;;;14.38;74.78
10978;BME280;5542;48.272;10.794;2022-09-09T01:38:14;95496.22;;;14.33;74.86
10978;BME280;5542;48.272;10.794;2022-09-09T01:40:41;95502.31;;;14.33;75.33
10978;BME280;5542;48.272;10.794;2022-09-09T01:43:09;95502.31;;;14.33;75.70
10978;BME280;5542;48.272;10.794;2022-09-09T01:45:36;95494.13;;;14.35;75.83
10978;BME280;5542;48.272;10.794;2022-09-09T01:48:03;95492.56;;;14.34;75.71
10978;BME280;5542;48.272;10.794;2022-09-09T01:50:30;95494.13;;;14.35;75.71
10978;BME280;5542;48.272;10.794;2022-09-09T01:52:58;95494.13;;;14.35;75.78
10978;BME280;5542;48.272;10.794;2022-09-09T01:55:29;95499.16;;;14.37;75.25
10978;BME280;5542;48.272;10.794;2022-09-09T01:58:10;95488.06;;;14.34;75.26
10978;BME280;5542;48.272;10.794;2022-09-09T02:00:44;95484.31;;;14.30;75.41
10978;BME280;5542;48.272;10.794;2022-09-09T02:03:20;95484.56;;;14.29;75.26
10978;BME280;5542;48.272;10.794;2022-09-09T02:05:55;95480.88;;;14.30;75.20
10978;BME280;5542;48.272;10.794;2022-09-09T02:08:33;95482.47;;;14.31;75.28
10978;BME280;5542;48.272;10.794;2022-09-09T02:11:07;95483.00;;;14.33;75.26
10978;BME280;5542;48.272;10.794;2022-09-09T02:13:37;95477.44;;;14.29;75.10
10978;BME280;5542;48.272;10.794;2022-09-09T02:16:07;95476.38;;;14.25;75.19
10978;BME280;5542;48.272;10.794;2022-09-09T02:18:42;95470.78;;;14.22;75.05
10978;BME280;5542;48.272;10.794;2022-09-09T02:21:12;95471.84;;;14.21;74.96
10978;BME280;5542;48.272;10.794;2022-09-09T02:23:41;95469.44;;;14.19;74.56
10978;BME280;5542;48.272;10.794;2022-09-09T02:26:08;95470.75;;;14.17;74.35
10978;BME280;5542;48.272;10.794;2022-09-09T02:28:40;95472.31;;;14.13;74.92
10978;BME280;5542;48.272;10.794;2022-09-09T02:31:07;95473.38;;;14.12;75.48
10978;BME280;5542;48.272;10.794;2022-09-09T02:33:38;95469.94;;;14.11;75.59
10978;BME280;5542;48.272;10.794;2022-09-09T02:36:07;95473.13;;;14.13;75.77
10978;BME280;5542;48.272;10.794;2022-09-09T02:38:37;95469.69;;;14.13;75.85
10978;BME280;5542;48.272;10.794;2022-09-09T02:41:07;95465.97;;;14.14;75.79
10978;BME280;5542;48.272;10.794;2022-09-09T02:43:34;95459.63;;;14.15;75.50
10978;BME280;5542;48.272;10.794;2022-09-09T02:46:08;95463.31;;;14.08;75.55
10978;BME280;5542;48.272;10.794;2022-09-09T02:48:49;95459.56;;;14.04;76.09
10978;BME280;5542;48.272;10.794;2022-09-09T02:51:24;95467.28;;;14.06;76.06
10978;BME280;5542;48.272;10.794;2022-09-09T02:54:00;95465.94;;;14.03;76.17
10978;BME280;5542;48.272;10.794;2022-09-09T02:56:30;95476.75;;;14.02;76.22
10978;BME280;5542;48.272;10.794;2022-09-09T02:59:03;95470.94;;;14.05;76.08
10978;BME280;5542;48.272;10.794;2022-09-09T03:01:31;95472.53;;;14.01;76.11
10978;BME280;5542;48.272;10.794;2022-09-09T03:03:58;95474.88;;;13.97;76.36
10978;BME280;5542;48.272;10.794;2022-09-09T03:06:24;95470.38;;;13.98;76.51
10978;BME280;5542;48.272;10.794;2022-09-09T03:08:52;95473.81;;;13.98;76.55
10978;BME280;5542;48.272;10.794;2022-09-09T03:11:19;95466.16;;;13.97;76.68
10978;BME280;5542;48.272;10.794;2022-09-09T03:13:45;95465.38;;;13.96;76.84
10978;BME280;5542;48.272;10.794;2022-09-09T03:16:12;95470.13;;;13.99;76.77
10978;BME280;5542;48.272;10.794;2022-09-09T03:18:41;95468.25;;;13.95;77.13
10978;BME280;5542;48.272;10.794;2022-09-09T03:21:10;95476.97;;;13.95;77.46
10978;BME280;5542;48.272;10.794;2022-09-09T03:23:37;95468.25;;;13.95;77.43
10978;BME280;5542;48.272;10.794;2022-09-09T03:26:03;95471.16;;;13.93;77.65
10978;BME280;5542;48.272;10.794;2022-09-09T03:28:30;95471.16;;;13.93;77.81
10978;BME280;5542;48.272;10.794;2022-09-09T03:30:59;95468.50;;;13.93;78.11
10978;BME280;5542;48.272;10.794;2022-09-09T03:33:25;95466.13;;;13.92;78.01
10978;BME280;5542;48.272;10.794;2022-09-09T03:35:54;95467.97;;;13.91;77.96
10978;BME280;5542;48.272;10.794;2022-09-09T03:38:22;95462.69;;;13.91;77.92
10978;BME280;5542;48.272;10.794;2022-09-09T03:40:50;95461.63;;;13.92;77.65
10978;BME280;5542;48.272;10.794;2022-09-09T03:43:20;95466.94;;;13.92;77.84
10978;BME280;5542;48.272;10.794;2022-09-09T03:45:47;95461.88;;;13.91;77.86
10978;BME280;5542;48.272;10.794;2022-09-09T03:48:15;95454.75;;;13.91;78.06
10978;BME280;5542;48.272;10.794;2022-09-09T03:50:44;95451.28;;;13.91;77.99
10978;BME280;5542;48.272;10.794;2022-09-09T03:53:13;95448.41;;;13.92;77.83
10978;BME280;5542;48.272;10.794;2022-09-09T03:55:43;95446.00;;;13.91;78.14
10978;BME280;5542;48.272;10.794;2022-09-09T03:58:11;95444.72;;;13.93;78.07
10978;BME280;5542;48.272;10.794;2022-09-09T04:00:38;95443.91;;;13.93;78.13
10978;BME280;5542;48.272;10.794;2022-09-09T04:03:07;95438.09;;;13.91;78.08
10978;BME280;5542;48.272;10.794;2022-09-09T04:05:34;95449.41;;;13.86;78.35
10978;BME280;5542;48.272;10.794;2022-09-09T04:08:05;95448.09;;;13.83;78.69
10978;BME280;5542;48.272;10.794;2022-09-09T04:10:32;95442.53;;;13.85;78.94
10978;BME280;5542;48.272;10.794;2022-09-09T04:13:01;95443.34;;;13.86;79.00
10978;BME280;5542;48.272;10.794;2022-09-09T04:15:28;95440.47;;;13.87;78.96
10978;BME280;5542;48.272;10.794;2022-09-09T04:17:54;95442.03;;;13.88;78.72
10978;BME280;5542;48.272;10.794;2022-09-09T04:20:21;95443.09;;;13.87;78.89
10978;BME280;5542;48.272;10.794;2022-09-09T04:22:48;95445.22;;;13.90;78.72
10978;BME280;5542;48.272;10.794;2022-09-09T04:25:15;95453.69;;;13.87;78.71
10978;BME280;5542;48.272;10.794;2022-09-09T04:27:43;95451.56;;;13.89;78.77
10978;BME280;5542;48.272;10.794;2022-09-09T04:30:10;95450.25;;;13.87;78.83
10978;BME280;5542;48.272;10.794;2022-09-09T04:32:37;95448.88;;;13.84;79.19
10978;BME280;5542;48.272;10.794;2022-09-09T04:35:04;95456.81;;;13.84;79.45
10978;BME280;5542;48.272;10.794;2022-09-09T04:37:30;95455.22;;;13.83;79.83
10978;BME280;5542;48.272;10.794;2022-09-09T04:39:57;95454.22;;;13.89;79.74
10978;BME280;5542;48.272;10.794;2022-09-09T04:42:24;95447.31;;;13.83;80.86
10978;BME280;5542;48.272;10.794;2022-09-09T04:44:52;95455.16;;;13.73;81.82
10978;BME280;5542;48.272;10.794;2022-09-09T04:47:19;95453.53;;;13.67;82.58
10978;BME280;5542;48.272;10.794;2022-09-09T04:49:46;95446.13;;;13.64;82.93
10978;BME280;5542;48.272;10.794;2022-09-09T04:52:13;95451.59;;;13.57;82.79
10978;BME280;5542;48.272;10.794;2022-09-09T04:54:42;95450.78;;;13.51;83.35
10978;BME280;5542;48.272;10.794;2022-09-09T04:57:10;95448.66;;;13.48;83.71
10978;BME280;5542;48.272;10.794;2022-09-09T04:59:37;95455.31;;;13.56;83.58
10978;BME280;5542;48.272;10.794;2022-09-09T05:02:06;95448.22;;;13.62;83.47
10978;BME280;5542;48.272;10.794;2022-09-09T05:04:33;95447.47;;;13.71;82.87
10978;BME280;5542;48.272;10.794;2022-09-09T05:06:59;95450.66;;;13.68;83.40
10978;BME280;5542;48.272;10.794;2022-09-09T05:09:26;95450.34;;;13.65;83.89
10978;BME280;5542;48.272;10.794;2022-09-09T05:11:53;95453.22;;;13.58;84.00
10978;BME280;5542;48.272;10.794;2022-09-09T05:14:20;95447.72;;;13.65;84.43
10978;BME280;5542;48.272;10.794;2022-09-09T05:16:46;95453.28;;;13.68;84.55
10978;BME280;5542;48.272;10.794;2022-09-09T05:19:16;95452.16;;;13.59;85.06
10978;BME280;5542;48.272;10.794;2022-09-09T05:21:44;95460.06;;;13.54;85.55
10978;BME280;5542;48.272;10.794;2022-09-09T05:24:11;95462.13;;;13.52;86.01
10978;BME280;5542;48.272;10.794;2022-09-09T05:26:37;95464.00;;;13.51;86.38
10978;BME280;5542;48.272;10.794;2022-09-09T05:29:04;95462.78;;;13.64;85.91
10978;BME280;5542;48.272;10.794;2022-09-09T05:31:31;95467.03;;;13.70;85.99
10978;BME280;5542;48.272;10.794;2022-09-09T05:33:58;95469.47;;;13.77;85.67
10978;BME280;5542;48.272;10.794;2022-09-09T05:36:26;95491.88;;;13.69;86.15
10978;BME280;5542;48.272;10.794;2022-09-09T05:38:53;95509.63;;;13.74;86.83
10978;BME280;5542;48.272;10.794;2022-09-09T05:41:20;95501.41;;;14.13;84.39
10978;BME280;5542;48.272;10.794;2022-09-09T05:43:48;95505.09;;;14.06;84.91
10978;BME280;5542;48.272;10.794;2022-09-09T05:46:17;95506.47;;;14.19;83.62
10978;BME280;5542;48.272;10.794;2022-09-09T05:48:45;95504.59;;;14.15;83.99
10978;BME280;5542;48.272;10.794;2022-09-09T05:51:14;95514.94;;;14.16;83.65
10978;BME280;5542;48.272;10.794;2022-09-09T05:53:44;95519.25;;;14.38;81.59
10978;BME280;5542;48.272;10.794;2022-09-09T05:56:13;95520.03;;;14.33;81.90
10978;BME280;5542;48.272;10.794;2022-09-09T05:58:40;95518.16;;;14.28;82.13
10978;BME280;5542;48.272;10.794;2022-09-09T06:01:10;95525.09;;;14.34;82.03
10978;BME280;5542;48.272;10.794;2022-09-09T06:03:38;95523.00;;;14.42;81.56
10978;BME280;5542;48.272;10.794;2022-09-09T06:06:07;95525.13;;;14.45;80.89
10978;BME280;5542;48.272;10.794;2022-09-09T06:08:35;95521.94;;;14.43;80.99
10978;BME280;5542;48.272;10.794;2022-09-09T06:11:06;95523.03;;;14.47;81.16
10978;BME280;5542;48.272;10.794;2022-09-09T06:13:33;95520.16;;;14.48;81.04
10978;BME280;5542;48.272;10.794;2022-09-09T06:16:00;95526.25;;;14.49;81.32
10978;BME280;5542;48.272;10.794;2022-09-09T06:18:27;95520.69;;;14.50;81.54
10978;BME280;5542;48.272;10.794;2022-09-09T06:20:56;95518.84;;;14.51;81.29
10978;BME280;5542;48.272;10.794;2022-09-09T06:23:23;95519.13;;;14.54;81.50
10978;BME280;5542;48.272;10.794;2022-09-09T06:25:51;95515.94;;;14.52;81.25
10978;BME280;5542;48.272;10.794;2022-09-09T06:28:19;95516.75;;;14.53;81.62
10978;BME280;5542;48.272;10.794;2022-09-09T06:30:45;95520.72;;;14.55;81.61
10978;BME280;5542;48.272;10.794;2022-09-09T06:33:12;95516.78;;;14.58;81.46
10978;BME280;5542;48.272;10.794;2022-09-09T06:35:38;95516.00;;;14.63;81.34
10978;BME280;5542;48.272;10.794;2022-09-09T06:38:05;95511.47;;;14.58;81.23
10978;BME280;5542;48.272;10.794;2022-09-09T06:40:33;95510.16;;;14.60;81.11
10978;BME280;5542;48.272;10.794;2022-09-09T06:43:00;95512.28;;;14.64;81.22
10978;BME280;5542;48.272;10.794;2022-09-09T06:45:28;95509.66;;;14.69;81.35
10978;BME280;5542;48.272;10.794;2022-09-09T06:47:55;95509.41;;;14.75;81.43
10978;BME280;5542;48.272;10.794;2022-09-09T06:50:22;95514.47;;;14.82;81.71
10978;BME280;5542;48.272;10.794;2022-09-09T06:52:48;95516.09;;;14.93;81.99
10978;BME280;5542;48.272;10.794;2022-09-09T06:55:15;95518.75;;;14.93;82.36
10978;BME280;5542;48.272;10.794;2022-09-09T06:57:43;95521.97;;;15.00;82.46
10978;BME280;5542;48.272;10.794;2022-09-09T07:00:11;95525.16;;;15.13;82.94
10978;BME280;5542;48.272;10.794;2022-09-09T07:02:40;95523.06;;;15.15;83.25
10978;BME280;5542;48.272;10.794;2022-09-09T07:05:08;95532.03;;;15.19;83.65
10978;BME280;5542;48.272;10.794;2022-09-09T07:07:35;95531.25;;;15.18;83.86
10978;BME280;5542;48.272;10.794;2022-09-09T07:10:02;95537.09;;;15.20;83.80
10978;BME280;5542;48.272;10.794;2022-09-09T07:12:29;95531.03;;;15.30;83.04
10978;BME280;5542;48.272;10.794;2022-09-09T07:14:55;95541.63;;;15.30;82.79
10978;BME280;5542;48.272;10.794;2022-09-09T07:17:22;95536.34;;;15.35;82.71
10978;BME280;5542;48.272;10.794;2022-09-09T07:19:50;95535.25;;;15.36;82.31
10978;BME280;5542;48.272;10.794;2022-09-09T07:22:17;95537.13;;;15.35;82.18
10978;BME280;5542;48.272;10.794;2022-09-09T07:24:45;95545.06;;;15.35;82.19
10978;BME280;5542;48.272;10.794;2022-09-09T07:27:12;95545.06;;;15.35;82.25
10978;BME280;5542;48.272;10.794;2022-09-09T07:29:38;95544.00;;;15.36;82.43
10978;BME280;5542;48.272;10.794;2022-09-09T07:32:05;95546.16;;;15.40;82.47
10978;BME280;5542;48.272;10.794;2022-09-09T07:34:31;95545.09;;;15.46;82.36
10978;BME280;5542;48.272;10.794;2022-09-09T07:37:00;95546.94;;;15.50;82.21
10978;BME280;5542;48.272;10.794;2022-09-09T07:39:26;95555.97;;;15.54;81.71
10978;BME280;5542;48.272;10.794;2022-09-09T07:41:53;95559.69;;;15.48;81.62
10978;BME280;5542;48.272;10.794;2022-09-09T07:44:21;95546.44;;;15.53;81.72
10978;BME280;5542;48.272;10.794;2022-09-09T07:46:50;95546.16;;;15.55;81.73
10978;BME280;5542;48.272;10.794;2022-09-09T07:49:16;95543.00;;;15.58;81.76
10978;BME280;5542;48.272;10.794;2022-09-09T07:51:46;95547.75;;;15.56;81.96
10978;BME280;5542;48.272;10.794;2022-09-09T07:54:15;95546.97;;;15.60;81.60
10978;BME280;5542;48.272;10.794;2022-09-09T07:56:45;95545.94;;;15.67;81.84
10978;BME280;5542;48.272;10.794;2022-09-09T07:59:12;95543.03;;;15.68;82.30
10978;BME280;5542;48.272;10.794;2022-09-09T08:01:40;95550.97;;;15.73;83.10
10978;BME280;5542;48.272;10.794;2022-09-09T08:04:09;95543.53;;;15.85;83.04
10978;BME280;5542;48.272;10.794;2022-09-09T08:06:42;95540.09;;;15.90;82.70
10978;BME280;5542;48.272;10.794;2022-09-09T08:09:09;95543.56;;;16.06;82.17
10978;BME280;5542;48.272;10.794;2022-09-09T08:11:39;95551.72;;;16.45;79.91
10978;BME280;5542;48.272;10.794;2022-09-09T08:14:06;95554.88;;;16.57;80.59
10978;BME280;5542;48.272;10.794;2022-09-09T08:16:35;95555.94;;;16.72;79.59
10978;BME280;5542;48.272;10.794;2022-09-09T08:19:03;95565.97;;;16.80;78.81
10978;BME280;5542;48.272;10.794;2022-09-09T08:21:32;95551.63;;;16.86;78.41
10978;BME280;5542;48.272;10.794;2022-09-09T08:24:00;95561.91;;;16.98;75.48
10978;BME280;5542;48.272;10.794;2022-09-09T08:26:29;95569.63;;;16.99;75.34
10978;BME280;5542;48.272;10.794;2022-09-09T08:28:59;95561.63;;;16.99;75.52
10978;BME280;5542;48.272;10.794;2022-09-09T08:31:27;95565.59;;;17.12;75.10
10978;BME280;5542;48.272;10.794;2022-09-09T08:33:54;95564.53;;;17.08;74.88
10978;BME280;5542;48.272;10.794;2022-09-09T08:36:23;95563.63;;;17.28;73.92
10978;BME280;5542;48.272;10.794;2022-09-09T08:38:52;95569.53;;;17.20;72.75
10978;BME280;5542;48.272;10.794;2022-09-09T08:41:35;95572.69;;;17.27;72.75
10978;BME280;5542;48.272;10.794;2022-09-09T08:44:07;95570.59;;;17.24;73.38
10978;BME280;5542;48.272;10.794;2022-09-09T08:46:44;95577.19;;;17.26;74.38
10978;BME280;5542;48.272;10.794;2022-09-09T08:49:24;95577.47;;;17.30;73.81
10978;BME280;5542;48.272;10.794;2022-09-09T08:51:58;95580.41;;;17.28;73.10
10978;BME280;5542;48.272;10.794;2022-09-09T08:54:26;95577.72;;;17.33;74.12
10978;BME280;5542;48.272;10.794;2022-09-09T08:56:58;95578.13;;;17.51;73.74
10978;BME280;5542;48.272;10.794;2022-09-09T08:59:26;95572.56;;;17.52;73.50
10978;BME280;5542;48.272;10.794;2022-09-09T09:02:01;95573.03;;;17.59;72.93
10978;BME280;5542;48.272;10.794;2022-09-09T09:04:44;95573.25;;;17.68;72.70
10978;BME280;5542;48.272;10.794;2022-09-09T09:07:23;95567.78;;;17.88;72.71
10978;BME280;5542;48.272;10.794;2022-09-09T09:09:57;95564.22;;;18.03;70.80
10978;BME280;5542;48.272;10.794;2022-09-09T09:12:27;95566.97;;;18.22;69.17
10978;BME280;5542;48.272;10.794;2022-09-09T09:14:56;95572.63;;;18.15;70.62
10978;BME280;5542;48.272;10.794;2022-09-09T09:17:27;95565.09;;;18.23;69.05
10978;BME280;5542;48.272;10.794;2022-09-09T09:19:56;95565.16;;;18.17;69.12
10978;BME280;5542;48.272;10.794;2022-09-09T09:22:31;95564.00;;;18.29;69.83
10978;BME280;5542;48.272;10.794;2022-09-09T09:25:02;95560.16;;;18.40;68.65
10978;BME280;5542;48.272;10.794;2022-09-09T09:27:33;95559.28;;;18.50;68.37
10978;BME280;5542;48.272;10.794;2022-09-09T09:30:12;95563.16;;;18.33;68.80
10978;BME280;5542;48.272;10.794;2022-09-09T09:32:43;95564.19;;;18.37;68.12
10978;BME280;5542;48.272;10.794;2022-09-09T09:35:12;95567.38;;;18.39;69.44
10978;BME280;5542;48.272;10.794;2022-09-09T09:37:41;95564.00;;;18.58;68.06
10978;BME280;5542;48.272;10.794;2022-09-09T09:40:09;95559.38;;;18.68;68.25
10978;BME280;5542;48.272;10.794;2022-09-09T09:42:37;95558.53;;;18.68;67.75
10978;BME280;5542;48.272;10.794;2022-09-09T09:45:15;95567.34;;;18.68;68.71
10978;BME280;5542;48.272;10.794;2022-09-09T09:47:43;95563.41;;;18.61;68.21
10978;BME280;5542;48.272;10.794;2022-09-09T09:50:16;95563.25;;;18.52;69.21
10978;BME280;5542;48.272;10.794;2022-09-09T09:52:53;95565.91;;;18.52;69.79
10978;BME280;5542;48.272;10.794;2022-09-09T09:55:21;95579.72;;;18.54;70.12
10978;BME280;5542;48.272;10.794;2022-09-09T09:57:48;95573.38;;;18.50;71.00
10978;BME280;5542;48.272;10.794;2022-09-09T10:00:18;95568.81;;;18.80;69.15
10978;BME280;5542;48.272;10.794;2022-09-09T10:02:46;95575.88;;;18.65;70.25
10978;BME280;5542;48.272;10.794;2022-09-09T10:05:18;95576.38;;;18.73;69.15
10978;BME280;5542;48.272;10.794;2022-09-09T10:07:46;95574.53;;;18.68;68.92
10978;BME280;5542;48.272;10.794;2022-09-09T10:10:16;95579.34;;;18.71;69.74
10978;BME280;5542;48.272;10.794;2022-09-09T10:12:53;95580.13;;;18.72;69.39
10978;BME280;5542;48.272;10.794;2022-09-09T10:15:35;95578.59;;;18.60;69.51
10978;BME280;5542;48.272;10.794;2022-09-09T10:18:19;95574.59;;;18.63;70.06
10978;BME280;5542;48.272;10.794;2022-09-09T10:20:54;95564.94;;;18.72;69.23
10978;BME280;5542;48.272;10.794;2022-09-09T10:23:36;95566.44;;;18.78;68.67
10978;BME280;5542;48.272;10.794;2022-09-09T10:26:24;95572.88;;;18.77;68.81
10978;BME280;5542;48.272;10.794;2022-09-09T10:29:07;95568.25;;;18.83;69.05
10978;BME280;5542;48.272;10.794;2022-09-09T10:31:47;95571.00;;;18.78;69.04
10978;BME280;5542;48.272;10.794;2022-09-09T10:34:29;95565.16;;;18.76;69.76
10978;BME280;5542;48.272;10.794;2022-09-09T10:37:02;95562.25;;;18.72;69.58
10978;BME280;5542;48.272;10.794;2022-09-09T10:39:35;95571.06;;;18.67;69.47
10978;BME280;5542;48.272;10.794;2022-09-09T10:42:05;95573.22;;;18.65;70.23
10978;BME280;5542;48.272;10.794;2022-09-09T10:44:50;95559.88;;;18.65;70.72
10978;BME280;5542;48.272;10.794;2022-09-09T10:47:46;95563.34;;;18.71;70.39
10978;BME280;5542;48.272;10.794;2022-09-09T10:50:39;95570.69;;;18.79;69.81
10978;BME280;5542;48.272;10.794;2022-09-09T10:53:14;95566.00;;;18.95;69.00
10978;BME280;5542;48.272;10.794;2022-09-09T10:55:50;95564.38;;;18.99;68.58
10978;BME280;5542;48.272;10.794;2022-09-09T10:58:22;95565.09;;;18.81;68.33
10978;BME280;5542;48.272;10.794;2022-09-09T11:00:53;95566.75;;;18.77;68.25
10978;BME280;5542;48.272;10.794;2022-09-09T11:03:24;95568.88;;;18.75;68.94
10978;BME280;5542;48.272;10.794;2022-09-09T11:05:55;95566.16;;;19.04;66.61
10978;BME280;5542;48.272;10.794;2022-09-09T11:08:25;95557.78;;;18.91;67.25
10978;BME280;5542;48.272;10.794;2022-09-09T11:10:57;95558.91;;;19.09;66.67
10978;BME280;5542;48.272;10.794;2022-09-09T11:13:31;95559.09;;;19.13;66.99
10978;BME280;5542;48.272;10.794;2022-09-09T11:16:05;95557.38;;;19.22;
10978;BME280;5542;48.272;10.794;2022-09-09T11:18:41;95554.00;;;19.16;65.76
10978;BME280;5542;48.272;10.794;2022-09-09T11:21:15;95552.41;;;19.15;66.55
10978;BME280;5542;48.272;10.794;2022-09-09T11:23:48;95555.38;;;19.14;66.95
10978;BME280;5542;48.272;10.794;2022-09-09T11:26:23;95548.00;;;19.06;66.78
10978;BME280;5542;48.272;10.794;2022-09-09T11:29:14;95546.78;;;19.17;66.84
10978;BME280;5542;48.272;10.794;2022-09-09T11:31:56;95551.84;;;19.18;66.74
10978;BME280;5542;48.272;10.794;2022-09-09T11:34:39;95544.50;;;19.29;67.28
10978;BME280;5542;48.272;10.794;2022-09-09T11:37:37;95549.31;;;19.27;66.19
10978;BME280;5542;48.272;10.794;2022-09-09T11:40:19;95544.72;;;19.33;66.89
10978;BME280;5542;48.272;10.794;2022-09-09T11:42:48;95545.16;;;19.40;66.32
10978;BME280;5542;48.272;10.794;2022-09-09T11:45:21;95542.63;;;19.49;65.46
10978;BME280;5542;48.272;10.794;2022-09-09T11:47:53;95551.34;;;19.54;64.84
10978;BME280;5542;48.272;10.794;2022-09-09T11:50:33;95552.44;;;19.53;65.57
10978;BME280;5542;48.272;10.794;2022-09-09T11:53:21;95543.28;;;19.59;65.85
10978;BME280;5542;48.272;10.794;2022-09-09T11:56:04;95543.81;;;19.61;65.09
10978;BME280;5542;48.272;10.794;2022-09-09T11:58:36;95545.31;;;19.67;66.18
10978;BME280;5542;48.272;10.794;2022-09-09T12:01:14;95540.59;;;19.59;65.97
10978;BME280;5542;48.272;10.794;2022-09-09T12:03:43;95534.75;;;19.01;68.40
10978;BME280;5542;48.272;10.794;2022-09-09T12:06:15;95536.81;;;18.85;69.40
10978;BME280;5542;48.272;10.794;2022-09-09T12:08:46;95533.63;;;18.83;69.63
10978;BME280;5542;48.272;10.794;2022-09-09T12:11:24;95530.91;;;18.88;70.31
10978;BME280;5542;48.272;10.794;2022-09-09T12:13:53;95529.25;;;18.92;71.37
10978;BME280;5542;48.272;10.794;2022-09-09T12:16:29;95538.09;;;19.30;68.97
10978;BME280;5542;48.272;10.794;2022-09-09T12:19:04;95540.13;;;19.38;67.42
10978;BME280;5542;48.272;10.794;2022-09-09T12:21:36;95547.03;;;19.58;66.08
10978;BME280;5542;48.272;10.794;2022-09-09T12:24:09;95529.53;;;19.52;66.51
10978;BME280;5542;48.272;10.794;2022-09-09T12:26:38;95529.16;;;19.59;67.05
10978;BME280;5542;48.272;10.794;2022-09-09T12:29:19;95531.19;;;19.67;65.49
10978;BME280;5542;48.272;10.794;2022-09-09T12:31:53;95524.13;;;19.76;66.02
10978;BME280;5542;48.272;10.794;2022-09-09T12:34:31;95525.91;;;19.81;63.61
10978;BME280;5542;48.272;10.794;2022-09-09T12:37:06;95524.59;;;19.78;63.70
10978;BME280;5542;48.272;10.794;2022-09-09T12:39:37;95523.41;;;20.03;61.47
10978;BME280;5542;48.272;10.794;2022-09-09T12:42:16;95523.59;;;20.07;60.65
10978;BME280;5542;48.272;10.794;2022-09-09T12:44:50;95516.69;;;20.06;60.83
10978;BME280;5542;48.272;10.794;2022-09-09T12:47:18;95519.84;;;19.94;61.86
10978;BME280;5542;48.272;10.794;2022-09-09T12:49:47;95509.91;;;19.81;62.45
10978;BME280;5542;48.272;10.794;2022-09-09T12:52:20;95516.78;;;19.68;61.88
10978;BME280;5542;48.272;10.794;2022-09-09T12:54:49;95512.53;;;19.67;62.43
10978;BME280;5542;48.272;10.794;2022-09-09T12:57:17;95518.78;;;19.76;62.63
10978;BME280;5542;48.272;10.794;2022-09-09T12:59:44;95511.69;;;19.85;61.85
10978;BME280;5542;48.272;10.794;2022-09-09T13:02:17;95512.66;;;19.76;63.12
10978;BME280;5542;48.272;10.794;2022-09-09T13:04:44;95506.75;;;19.92;61.95
10978;BME280;5542;48.272;10.794;2022-09-09T13:07:12;95507.91;;;20.05;61.95
10978;BME280;5542;48.272;10.794;2022-09-09T13:09:43;95501.25;;;20.03;61.95
10978;BME280;5542;48.272;10.794;2022-09-09T13:12:14;95492.44;;;20.02;61.54
10978;BME280;5542;48.272;10.794;2022-09-09T13:14:43;95491.94;;;19.86;61.46
10978;BME280;5542;48.272;10.794;2022-09-09T13:17:18;95480.56;;;19.81;61.04
10978;BME280;5542;48.272;10.794;2022-09-09T13:19:46;95481.19;;;20.05;60.48
10978;BME280;5542;48.272;10.794;2022-09-09T13:22:13;95477.66;;;20.24;61.03